Weather observations for the past three days for
Salinas, Salinas Municipal Airport
Metric (Imperial)
Date Time (pdt) Wind (kph) Vis. (km) Weather Sky Cond. Temperature (ºC) Relative Humidity Wind Chill (°C) Heat Index (°C) Pressure Precipitation (cm)
Air Dwpt 6 hour altimeter (cm) sea level (mb) 1 hr 3 hr 6 hr
Max. Min.
02 08:53 W 9 12.87 Overcast OVC015 13.3 9.4 77% 76.12 1015.6
02 07:53 W 6 12.87 Overcast OVC014 12.8 9.4 80% 76.07 1015.1
02 06:53 W 11 11.27 Overcast OVC013 12.8 10 83% 76.07 1014.9
02 05:53 W 11 12.87 Overcast OVC014 12.8 9.4 80% 76.05 1014.7
02 04:53 W 11 12.87 Overcast OVC012 12.8 10 13.3 12.8 83% 76.02 1014.3
02 03:53 W 11 12.87 Overcast OVC013 12.8 10 83% 76 1014.1
02 02:53 W 11 12.87 Overcast OVC012 12.8 9.4 80% 76.02 1014.5
02 01:53 W 11 12.87 Overcast OVC012 12.8 10 83% 76.07 1015.1
02 00:53 W 6 11.27 Overcast OVC012 13.3 10 81% 76.1 1015.5
01 23:53 W 13 12.87 Overcast OVC012 13.3 10 81% 76.1 1015.4
01 22:53 W 11 12.87 Overcast OVC011 13.3 10 16.7 13.3 81% 76.1 1015.6
01 21:53 NW 17 12.87 Overcast OVC011 13.3 10 81% 76.1 1015.5
01 20:53 NW 17 12.87 Overcast OVC011 13.3 10.6 84% 76.07 1015.0
01 19:53 W 19 9.66 Overcast with Haze OVC012 13.9 10.6 81% 76.05 1014.7
01 18:53 NW 20 9.66 Mostly Cloudy with Haze BKN013 14.4 10.6 78% 76.02 1014.4
01 17:53 NW 20 12.87 A Few Clouds FEW015 15 10.6 75% 76.02 1014.4
01 16:53 NW 22 12.87 Fair CLR 16.7 10.6 18.3 15.6 67% 76.02 1014.4
01 15:53 W 24 12.87 Fair CLR 17.2 10.6 65% 76.05 1014.7
01 14:53 NW 22 11.27 Fair CLR 17.8 10.6 63% 76.1 1015.5
01 13:53 NW 20 11.27 Fair CLR 17.8 10.6 63% 76.12 1015.7
01 12:53 W 20 G 31 12.87 Fair CLR 17.2 10.6 65% 76.15 1016.1
01 11:53 W 15 9.66 A Few Clouds with Haze FEW017 16.7 11.1 70% 76.2 1016.7
01 10:53 Vrbl 6 8.05 Mostly Cloudy with Haze BKN015 15.6 10.6 15.6 11.1 72% 76.23 1017.1
01 09:53 SW 7 8.05 Overcast with Haze OVC011 13.3 10 81% 76.23 1017.2
01 08:53 Vrbl 6 8.05 Fog/Mist OVC009 12.2 10 87% 76.2 1016.9
01 07:53 Calm 8.05 Fog/Mist OVC008 11.7 9.4 86% 76.17 1016.5
01 06:53 SW 9 9.66 Fog/Mist OVC009 11.7 9.4 86% 76.15 1016.0
01 05:53 W 9 9.66 Fog/Mist OVC009 12.2 10 87% 76.12 1015.7
01 04:53 W 11 9.66 Fog/Mist OVC008 12.2 10 12.8 12.2 87% 76.1 1015.5
01 03:53 SW 9 8.05 Fog/Mist OVC007 12.2 10.6 90% 76.1 1015.5
01 02:53 NW 7 8.05 Fog/Mist OVC007 12.8 10.6 87% 76.07 1015.2
01 01:53 W 7 8.05 Fog/Mist OVC008 12.8 10.6 87% 76.1 1015.4
01 00:53 NW 9 8.05 Fog/Mist BKN013 12.2 10 87% 76.12 1015.9
30 23:53 NW 7 9.66 Fair with Haze CLR 12.8 10 83% 76.12 1015.8
30 22:53 NW 11 9.66 Fair with Haze CLR 12.8 10 17.2 12.8 83% 76.12 1015.6
30 21:53 NW 13 9.66 Fair with Haze CLR 13.3 10 81% 76.1 1015.5
30 20:53 NW 15 11.27 Fair CLR 13.3 10 81% 76.1 1015.3
30 19:53 NW 17 8.05 Mostly Cloudy with Haze BKN014 13.9 10 78% 76.07 1015.1
30 18:53 W 19 G 30 9.66 Overcast with Haze OVC016 14.4 10 75% 76.07 1015.0
30 17:53 W 20 9.66 Partly Cloudy with Haze SCT025 15.6 10 70% 76.07 1015.0
30 16:53 NW 20 G 33 9.66 A Few Clouds with Haze FEW019 17.2 10.6 18.9 15.6 65% 76.07 1015.0
30 15:53 W 26 G 37 9.66 Fair with Haze CLR 17.2 10.6 65% 76.1 1015.3
30 14:53 NW 24 9.66 Fair with Haze CLR 17.8 10.6 63% 76.1 1015.6
30 13:53 W 24 11.27 Fair CLR 17.8 10 60% 76.12 1015.7
30 12:53 W 20 11.27 Fair CLR 17.8 10 60% 76.12 1015.7
30 11:53 W 17 9.66 Fair with Haze CLR 17.8 10 60% 76.17 1016.4
30 10:53 W 15 9.66 Fair with Haze CLR 16.1 10.6 16.7 12.2 70% 76.2 1016.7
30 09:53 W 9 9.66 A Few Clouds with Haze FEW017 15.6 10.6 72% 76.2 1016.6
30 08:53 Vrbl 6 8.05 Mostly Cloudy with Haze BKN011 13.9 10 78% 76.17 1016.5
30 07:53 W 13 8.05 Overcast with Haze OVC010 12.2 9.4 83% 76.2 1016.6
30 06:53 W 9 6.44 Overcast with Haze OVC011 12.2 9.4 83% 76.17 1016.3
30 05:53 W 11 8.05 Fog/Mist OVC009 12.2 10 87% 76.17 1016.3
30 04:53 W 11 8.05 Fog/Mist OVC010 12.2 10 13.3 11.7 87% 76.17 1016.6
30 03:53 NW 7 8.05 Fog/Mist OVC010 11.7 10 89% 76.2 1016.6
30 02:53 NW 7 8.05 Fog/Mist OVC007 11.7 10 89% 76.17 1016.6
30 01:53 NW 7 9.66 Fog/Mist CLR 12.2 10 87% 76.23 1017.0
30 00:53 N 9 9.66 Fog/Mist CLR 12.2 10 87% 76.23 1017.2
29 23:53 N 11 9.66 Fair with Haze CLR 12.8 10 83% 76.25 1017.4
29 22:53 N 13 11.27 Fair CLR 13.3 10 18.3 13.3 81% 76.25 1017.6
29 21:53 NW 9 11.27 Fair CLR 14.4 9.4 72% 76.28 1017.7
29 20:53 W 11 12.87 Fair CLR 14.4 9.4 72% 76.25 1017.5
29 19:53 W 17 9.66 Fair with Haze CLR 15.6 9.4 67% 76.23 1017.1
29 18:53 NW 17 11.27 Fair CLR 16.7 10 65% 76.2 1016.9
29 17:53 NW 15 11.27 Fair CLR 17.8 10 60% 76.23 1017.1
29 16:53 W 22 9.66 Fair with Haze CLR 18.3 10.6 20 17.8 61% 76.25 1017.4
29 15:53 W 28 11.27 Fair CLR 18.3 10.6 61% 76.3 1018.0
29 14:53 NW 24 11.27 Fair CLR 18.3 10.6 61% 76.3 1018.2
29 13:53 NW 26 11.27 Fair CLR 19.4 10.6 57% 76.3 1018.2
29 12:53 Calm 11.27 Fair CLR 20 10 53% 76.33 1018.6
29 11:53 NW 15 0.00 Fair CLR 19.4 10.6 57% 76.38 1019.3
29 10:53 NW 13 12.87 Fair CLR 18.3 10.6 18.3 7.8 61% 76.4 1019.6
29 09:53 Calm 12.87 Fair CLR 16.1 8.9 63% 76.43 1019.9
Date Time (pdt) Wind (kph) Vis. (km) Weather Sky Cond. Air Dwpt Max. Min. Relative Humidity Wind Chill (°C) Heat Index (°C) altimeter (cm) sea level (mb) 1 hr 3 hr 6 hr
6 hour
Temperature (ºC) Pressure Precipitation (cm)